sensor_id;sensor_type;location;lat;lon;timestamp;temperature;humidity
19340;HTU21D;9804;52.350;6.684;2022-09-09T00:00:48;18.74;-6.00
19340;HTU21D;9804;52.350;6.684;2022-09-09T00:03:18;18.73;-6.00
19340;HTU21D;9804;52.350;6.684;2022-09-09T00:14:48;18.53;-6.00
19340;HTU21D;9804;52.350;6.684;2022-09-09T00:17:31;18.53;-6.00
19340;HTU21D;9804;52.350;6.684;2022-09-09T00:20:09;18.40;-6.00
19340;HTU21D;9804;52.350;6.684;2022-09-09T00:22:38;18.30;-6.00
19340;HTU21D;9804;52.350;6.684;2022-09-09T00:25:14;18.39;-6.00
19340;HTU21D;9804;52.350;6.684;2022-09-09T00:27:48;18.39;-6.00
19340;HTU21D;9804;52.350;6.684;2022-09-09T00:30:25;18.38;-6.00
19340;HTU21D;9804;52.350;6.684;2022-09-09T00:33:12;18.21;-6.00
19340;HTU21D;9804;52.350;6.684;2022-09-09T00:35:44;18.28;-6.00
19340;HTU21D;9804;52.350;6.684;2022-09-09T00:38:16;18.28;-6.00
19340;HTU21D;9804;52.350;6.684;2022-09-09T00:40:58;18.24;-6.00
19340;HTU21D;9804;52.350;6.684;2022-09-09T00:43:28;17.98;-6.00
19340;HTU21D;9804;52.350;6.684;2022-09-09T00:48:23;17.99;-6.00
19340;HTU21D;9804;52.350;6.684;2022-09-09T00:50:59;18.10;-6.00
19340;HTU21D;9804;52.350;6.684;2022-09-09T00:56:17;17.99;-6.00
19340;HTU21D;9804;52.350;6.684;2022-09-09T00:59:03;17.88;-6.00
19340;HTU21D;9804;52.350;6.684;2022-09-09T01:01:30;17.98;-6.00
19340;HTU21D;9804;52.350;6.684;2022-09-09T01:03:56;17.84;-6.00
19340;HTU21D;9804;52.350;6.684;2022-09-09T01:06:30;17.76;-6.00
19340;HTU21D;9804;52.350;6.684;2022-09-09T01:12:02;17.81;-6.00
19340;HTU21D;9804;52.350;6.684;2022-09-09T01:17:23;17.69;-6.00
19340;HTU21D;9804;52.350;6.684;2022-09-09T01:25:29;17.67;-6.00
19340;HTU21D;9804;52.350;6.684;2022-09-09T01:27:58;17.70;-6.00
19340;HTU21D;9804;52.350;6.684;2022-09-09T01:30:25;17.74;-6.00
19340;HTU21D;9804;52.350;6.684;2022-09-09T01:32:54;17.54;-6.00
19340;HTU21D;9804;52.350;6.684;2022-09-09T01:38:01;17.56;-6.00
19340;HTU21D;9804;52.350;6.684;2022-09-09T01:40:26;17.54;-6.00
19340;HTU21D;9804;52.350;6.684;2022-09-09T01:42:53;17.56;-6.00
19340;HTU21D;9804;52.350;6.684;2022-09-09T01:45:18;17.50;-6.00
19340;HTU21D;9804;52.350;6.684;2022-09-09T01:47:45;17.46;-6.00
19340;HTU21D;9804;52.350;6.684;2022-09-09T01:50:13;17.54;-6.00
19340;HTU21D;9804;52.350;6.684;2022-09-09T01:52:41;17.50;-6.00
19340;HTU21D;9804;52.350;6.684;2022-09-09T01:55:08;17.49;-6.00
19340;HTU21D;9804;52.350;6.684;2022-09-09T02:00:32;17.40;-6.00
19340;HTU21D;9804;52.350;6.684;2022-09-09T02:03:20;17.49;-6.00
19340;HTU21D;9804;52.350;6.684;2022-09-09T02:11:18;17.44;-6.00
19340;HTU21D;9804;52.350;6.684;2022-09-09T02:13:46;17.43;-6.00
19340;HTU21D;9804;52.350;6.684;2022-09-09T02:21:18;17.22;-6.00
19340;HTU21D;9804;52.350;6.684;2022-09-09T02:23:45;17.26;-6.00
19340;HTU21D;9804;52.350;6.684;2022-09-09T02:26:12;17.36;-6.00
19340;HTU21D;9804;52.350;6.684;2022-09-09T02:28:44;17.30;-6.00
19340;HTU21D;9804;52.350;6.684;2022-09-09T02:31:11;17.39;-6.00
19340;HTU21D;9804;52.350;6.684;2022-09-09T02:33:42;17.35;-6.00
19340;HTU21D;9804;52.350;6.684;2022-09-09T02:36:09;17.41;-6.00
19340;HTU21D;9804;52.350;6.684;2022-09-09T02:38:38;17.36;-6.00
19340;HTU21D;9804;52.350;6.684;2022-09-09T02:41:05;17.37;-6.00
19340;HTU21D;9804;52.350;6.684;2022-09-09T02:43:33;17.41;-6.00
19340;HTU21D;9804;52.350;6.684;2022-09-09T02:46:24;17.28;-6.00
19340;HTU21D;9804;52.350;6.684;2022-09-09T02:54:20;17.39;-6.00
19340;HTU21D;9804;52.350;6.684;2022-09-09T02:56:52;17.34;-6.00
19340;HTU21D;9804;52.350;6.684;2022-09-09T02:59:20;17.24;-6.00
19340;HTU21D;9804;52.350;6.684;2022-09-09T03:01:46;17.22;-6.00
19340;HTU21D;9804;52.350;6.684;2022-09-09T03:04:12;17.17;-6.00
19340;HTU21D;9804;52.350;6.684;2022-09-09T03:06:37;17.19;-6.00
19340;HTU21D;9804;52.350;6.684;2022-09-09T03:09:03;17.21;-6.00
19340;HTU21D;9804;52.350;6.684;2022-09-09T03:11:28;17.08;-6.00
19340;HTU21D;9804;52.350;6.684;2022-09-09T03:13:54;17.09;-6.00
19340;HTU21D;9804;52.350;6.684;2022-09-09T03:16:24;17.06;-6.00
19340;HTU21D;9804;52.350;6.684;2022-09-09T03:18:49;16.98;-6.00
19340;HTU21D;9804;52.350;6.684;2022-09-09T03:21:15;16.98;-6.00
19340;HTU21D;9804;52.350;6.684;2022-09-09T03:23:40;17.00;-6.00
19340;HTU21D;9804;52.350;6.684;2022-09-09T03:26:06;16.88;-6.00
19340;HTU21D;9804;52.350;6.684;2022-09-09T03:28:32;16.77;-6.00
19340;HTU21D;9804;52.350;6.684;2022-09-09T03:31:02;16.79;-6.00
19340;HTU21D;9804;52.350;6.684;2022-09-09T03:33:28;16.88;-6.00
19340;HTU21D;9804;52.350;6.684;2022-09-09T03:35:54;16.88;-6.00
19340;HTU21D;9804;52.350;6.684;2022-09-09T03:38:24;16.90;-6.00
19340;HTU21D;9804;52.350;6.684;2022-09-09T03:40:54;16.82;-6.00
19340;HTU21D;9804;52.350;6.684;2022-09-09T03:43:21;16.85;-6.00
19340;HTU21D;9804;52.350;6.684;2022-09-09T03:45:46;16.88;-6.00
19340;HTU21D;9804;52.350;6.684;2022-09-09T03:48:13;16.79;-6.00
19340;HTU21D;9804;52.350;6.684;2022-09-09T03:50:38;16.79;-6.00
19340;HTU21D;9804;52.350;6.684;2022-09-09T03:53:04;16.67;-6.00
19340;HTU21D;9804;52.350;6.684;2022-09-09T03:55:31;16.78;-6.00
19340;HTU21D;9804;52.350;6.684;2022-09-09T03:57:56;16.70;-6.00
19340;HTU21D;9804;52.350;6.684;2022-09-09T04:00:21;16.75;-6.00
19340;HTU21D;9804;52.350;6.684;2022-09-09T04:02:47;16.62;-6.00
19340;HTU21D;9804;52.350;6.684;2022-09-09T04:05:12;16.67;-6.00
19340;HTU21D;9804;52.350;6.684;2022-09-09T04:07:38;16.67;-6.00
19340;HTU21D;9804;52.350;6.684;2022-09-09T04:10:04;16.64;-6.00
19340;HTU21D;9804;52.350;6.684;2022-09-09T04:12:29;16.65;-6.00
19340;HTU21D;9804;52.350;6.684;2022-09-09T04:14:55;16.64;-6.00
19340;HTU21D;9804;52.350;6.684;2022-09-09T04:17:20;16.60;-6.00
19340;HTU21D;9804;52.350;6.684;2022-09-09T04:19:45;16.62;-6.00
19340;HTU21D;9804;52.350;6.684;2022-09-09T04:22:11;16.59;-6.00
19340;HTU21D;9804;52.350;6.684;2022-09-09T04:24:37;16.55;-6.00
19340;HTU21D;9804;52.350;6.684;2022-09-09T04:27:02;16.58;-6.00
19340;HTU21D;9804;52.350;6.684;2022-09-09T04:29:27;16.62;-6.00
19340;HTU21D;9804;52.350;6.684;2022-09-09T04:31:53;16.63;-6.00
19340;HTU21D;9804;52.350;6.684;2022-09-09T04:34:18;16.67;-6.00
19340;HTU21D;9804;52.350;6.684;2022-09-09T04:36:43;16.67;-6.00
19340;HTU21D;9804;52.350;6.684;2022-09-09T04:39:09;16.69;-6.00
19340;HTU21D;9804;52.350;6.684;2022-09-09T04:41:34;16.66;-6.00
19340;HTU21D;9804;52.350;6.684;2022-09-09T04:44:00;16.64;-6.00
19340;HTU21D;9804;52.350;6.684;2022-09-09T04:46:25;16.71;-6.00
19340;HTU21D;9804;52.350;6.684;2022-09-09T04:48:51;16.82;-6.00
19340;HTU21D;9804;52.350;6.684;2022-09-09T04:51:17;16.86;-6.00
19340;HTU21D;9804;52.350;6.684;2022-09-09T04:53:43;16.86;-6.00
19340;HTU21D;9804;52.350;6.684;2022-09-09T04:56:16;16.82;-6.00
19340;HTU21D;9804;52.350;6.684;2022-09-09T04:58:41;16.86;-6.00
19340;HTU21D;9804;52.350;6.684;2022-09-09T05:01:21;16.95;-6.00
19340;HTU21D;9804;52.350;6.684;2022-09-09T05:03:47;16.95;-6.00
19340;HTU21D;9804;52.350;6.684;2022-09-09T05:06:15;17.10;-6.00
19340;HTU21D;9804;52.350;6.684;2022-09-09T05:08:42;17.14;-6.00
19340;HTU21D;9804;52.350;6.684;2022-09-09T05:11:22;17.20;-6.00
19340;HTU21D;9804;52.350;6.684;2022-09-09T05:13:51;17.25;-6.00
19340;HTU21D;9804;52.350;6.684;2022-09-09T05:16:18;17.24;-6.00
19340;HTU21D;9804;52.350;6.684;2022-09-09T05:18:44;17.38;-6.00
19340;HTU21D;9804;52.350;6.684;2022-09-09T05:21:12;17.40;-6.00
19340;HTU21D;9804;52.350;6.684;2022-09-09T05:23:38;17.36;-6.00
19340;HTU21D;9804;52.350;6.684;2022-09-09T05:26:04;17.46;-6.00
19340;HTU21D;9804;52.350;6.684;2022-09-09T05:28:30;17.38;-6.00
19340;HTU21D;9804;52.350;6.684;2022-09-09T05:31:07;17.43;-6.00
19340;HTU21D;9804;52.350;6.684;2022-09-09T05:33:38;17.62;-6.00
19340;HTU21D;9804;52.350;6.684;2022-09-09T05:36:07;17.68;-6.00
19340;HTU21D;9804;52.350;6.684;2022-09-09T05:38:34;17.70;-6.00
19340;HTU21D;9804;52.350;6.684;2022-09-09T05:41:01;17.81;-6.00
19340;HTU21D;9804;52.350;6.684;2022-09-09T05:43:28;17.74;-6.00
19340;HTU21D;9804;52.350;6.684;2022-09-09T05:46:03;17.74;-6.00
19340;HTU21D;9804;52.350;6.684;2022-09-09T05:48:31;17.83;-6.00
19340;HTU21D;9804;52.350;6.684;2022-09-09T05:50:57;17.91;-6.00
19340;HTU21D;9804;52.350;6.684;2022-09-09T05:53:23;17.79;-6.00
19340;HTU21D;9804;52.350;6.684;2022-09-09T05:55:48;17.93;-6.00
19340;HTU21D;9804;52.350;6.684;2022-09-09T05:58:14;17.78;-6.00
19340;HTU21D;9804;52.350;6.684;2022-09-09T06:00:42;17.88;-6.00
19340;HTU21D;9804;52.350;6.684;2022-09-09T06:03:11;17.96;-6.00
19340;HTU21D;9804;52.350;6.684;2022-09-09T06:05:36;17.94;-6.00
19340;HTU21D;9804;52.350;6.684;2022-09-09T06:08:01;18.00;-6.00
19340;HTU21D;9804;52.350;6.684;2022-09-09T06:10:27;18.04;-6.00
19340;HTU21D;9804;52.350;6.684;2022-09-09T06:12:53;17.97;-6.00
19340;HTU21D;9804;52.350;6.684;2022-09-09T06:15:18;17.99;-6.00
19340;HTU21D;9804;52.350;6.684;2022-09-09T06:17:44;18.25;-6.00
19340;HTU21D;9804;52.350;6.684;2022-09-09T06:20:10;18.28;-6.00
19340;HTU21D;9804;52.350;6.684;2022-09-09T06:22:36;18.47;-6.00
19340;HTU21D;9804;52.350;6.684;2022-09-09T06:25:01;18.43;-6.00
19340;HTU21D;9804;52.350;6.684;2022-09-09T06:27:27;18.40;-6.00
19340;HTU21D;9804;52.350;6.684;2022-09-09T06:29:52;18.57;-6.00
19340;HTU21D;9804;52.350;6.684;2022-09-09T06:32:18;18.51;-6.00
19340;HTU21D;9804;52.350;6.684;2022-09-09T06:34:43;18.57;-6.00
19340;HTU21D;9804;52.350;6.684;2022-09-09T06:37:09;18.42;-6.00
19340;HTU21D;9804;52.350;6.684;2022-09-09T06:39:34;18.66;-6.00
19340;HTU21D;9804;52.350;6.684;2022-09-09T06:41:59;18.67;-6.00
19340;HTU21D;9804;52.350;6.684;2022-09-09T06:44:25;18.73;-6.00
19340;HTU21D;9804;52.350;6.684;2022-09-09T06:46:52;18.67;-6.00
19340;HTU21D;9804;52.350;6.684;2022-09-09T06:49:17;18.88;-6.00
19340;HTU21D;9804;52.350;6.684;2022-09-09T06:51:42;18.94;-6.00
19340;HTU21D;9804;52.350;6.684;2022-09-09T06:54:10;18.92;-6.00
19340;HTU21D;9804;52.350;6.684;2022-09-09T06:56:38;19.00;-6.00
19340;HTU21D;9804;52.350;6.684;2022-09-09T06:59:06;18.93;-6.00
19340;HTU21D;9804;52.350;6.684;2022-09-09T07:01:38;19.05;-6.00
19340;HTU21D;9804;52.350;6.684;2022-09-09T07:04:06;19.02;-6.00
19340;HTU21D;9804;52.350;6.684;2022-09-09T07:06:35;19.17;-6.00
19340;HTU21D;9804;52.350;6.684;2022-09-09T07:09:06;19.07;-6.00
19340;HTU21D;9804;52.350;6.684;2022-09-09T07:11:36;19.46;-6.00
19340;HTU21D;9804;52.350;6.684;2022-09-09T07:14:02;19.26;-6.00
19340;HTU21D;9804;52.350;6.684;2022-09-09T07:16:28;19.22;-6.00
19340;HTU21D;9804;52.350;6.684;2022-09-09T07:18:54;19.17;-6.00
19340;HTU21D;9804;52.350;6.684;2022-09-09T07:21:29;19.52;-6.00
19340;HTU21D;9804;52.350;6.684;2022-09-09T07:23:55;19.50;-6.00
19340;HTU21D;9804;52.350;6.684;2022-09-09T07:26:23;19.53;-6.00
19340;HTU21D;9804;52.350;6.684;2022-09-09T07:28:49;19.25;-6.00
19340;HTU21D;9804;52.350;6.684;2022-09-09T07:31:22;19.54;-6.00
19340;HTU21D;9804;52.350;6.684;2022-09-09T07:33:49;19.41;-6.00
19340;HTU21D;9804;52.350;6.684;2022-09-09T07:36:16;19.63;-6.00
19340;HTU21D;9804;52.350;6.684;2022-09-09T07:38:50;19.45;-6.00
19340;HTU21D;9804;52.350;6.684;2022-09-09T07:41:22;19.56;-6.00
19340;HTU21D;9804;52.350;6.684;2022-09-09T07:43:49;19.65;-6.00
19340;HTU21D;9804;52.350;6.684;2022-09-09T07:46:16;19.76;-6.00
19340;HTU21D;9804;52.350;6.684;2022-09-09T07:48:46;20.03;-6.00
19340;HTU21D;9804;52.350;6.684;2022-09-09T07:51:18;19.76;-6.00
19340;HTU21D;9804;52.350;6.684;2022-09-09T07:53:45;20.17;-6.00
19340;HTU21D;9804;52.350;6.684;2022-09-09T07:56:16;20.28;-6.00
19340;HTU21D;9804;52.350;6.684;2022-09-09T07:58:44;20.30;-6.00
19340;HTU21D;9804;52.350;6.684;2022-09-09T08:01:33;20.11;-6.00
19340;HTU21D;9804;52.350;6.684;2022-09-09T08:04:02;20.72;-6.00
19340;HTU21D;9804;52.350;6.684;2022-09-09T08:06:29;20.57;-6.00
19340;HTU21D;9804;52.350;6.684;2022-09-09T08:08:55;20.41;-6.00
19340;HTU21D;9804;52.350;6.684;2022-09-09T08:11:25;20.81;-6.00
19340;HTU21D;9804;52.350;6.684;2022-09-09T08:13:51;20.75;-6.00
19340;HTU21D;9804;52.350;6.684;2022-09-09T08:16:22;20.72;-6.00
19340;HTU21D;9804;52.350;6.684;2022-09-09T08:18:49;21.04;-6.00
19340;HTU21D;9804;52.350;6.684;2022-09-09T08:21:19;21.01;-6.00
19340;HTU21D;9804;52.350;6.684;2022-09-09T08:23:46;21.22;-6.00
19340;HTU21D;9804;52.350;6.684;2022-09-09T08:26:15;20.91;-6.00
19340;HTU21D;9804;52.350;6.684;2022-09-09T08:28:41;21.00;-6.00
19340;HTU21D;9804;52.350;6.684;2022-09-09T08:31:08;20.96;-6.00
19340;HTU21D;9804;52.350;6.684;2022-09-09T08:33:34;21.07;-6.00
19340;HTU21D;9804;52.350;6.684;2022-09-09T08:36:01;21.31;-6.00
19340;HTU21D;9804;52.350;6.684;2022-09-09T08:38:27;21.52;-6.00
19340;HTU21D;9804;52.350;6.684;2022-09-09T08:43:41;21.59;-6.00
19340;HTU21D;9804;52.350;6.684;2022-09-09T08:52:02;21.03;-6.00
19340;HTU21D;9804;52.350;6.684;2022-09-09T08:54:32;21.13;-6.00
19340;HTU21D;9804;52.350;6.684;2022-09-09T08:56:58;21.14;-6.00
19340;HTU21D;9804;52.350;6.684;2022-09-09T08:59:24;21.60;-6.00
19340;HTU21D;9804;52.350;6.684;2022-09-09T09:02:14;21.78;-6.00
19340;HTU21D;9804;52.350;6.684;2022-09-09T09:08:10;21.90;-6.00
19340;HTU21D;9804;52.350;6.684;2022-09-09T09:10:44;22.16;-6.00
19340;HTU21D;9804;52.350;6.684;2022-09-09T09:13:18;22.27;-6.00
19340;HTU21D;9804;52.350;6.684;2022-09-09T09:15:48;22.66;-6.00
19340;HTU21D;9804;52.350;6.684;2022-09-09T09:18:16;22.56;-6.00
19340;HTU21D;9804;52.350;6.684;2022-09-09T09:21:00;22.47;-6.00
19340;HTU21D;9804;52.350;6.684;2022-09-09T09:23:38;22.38;-6.00
19340;HTU21D;9804;52.350;6.684;2022-09-09T09:26:07;22.16;-6.00
19340;HTU21D;9804;52.350;6.684;2022-09-09T09:28:35;22.16;-6.00
19340;HTU21D;9804;52.350;6.684;2022-09-09T09:31:07;22.25;-6.00
19340;HTU21D;9804;52.350;6.684;2022-09-09T09:33:44;22.47;-6.00
19340;HTU21D;9804;52.350;6.684;2022-09-09T09:36:12;22.71;-6.00
19340;HTU21D;9804;52.350;6.684;2022-09-09T09:38:54;22.54;-6.00
19340;HTU21D;9804;52.350;6.684;2022-09-09T09:41:38;22.80;-6.00
19340;HTU21D;9804;52.350;6.684;2022-09-09T09:44:06;23.14;-6.00
19340;HTU21D;9804;52.350;6.684;2022-09-09T09:46:45;23.27;-6.00
19340;HTU21D;9804;52.350;6.684;2022-09-09T09:49:10;23.57;-6.00
19340;HTU21D;9804;52.350;6.684;2022-09-09T09:51:35;23.83;-6.00
19340;HTU21D;9804;52.350;6.684;2022-09-09T09:56:38;23.77;-6.00
19340;HTU21D;9804;52.350;6.684;2022-09-09T09:59:04;23.54;-6.00
19340;HTU21D;9804;52.350;6.684;2022-09-09T10:01:32;23.82;-6.00
19340;HTU21D;9804;52.350;6.684;2022-09-09T10:04:03;23.43;-6.00
19340;HTU21D;9804;52.350;6.684;2022-09-09T10:06:38;23.38;-6.00
19340;HTU21D;9804;52.350;6.684;2022-09-09T10:14:20;23.18;-6.00
19340;HTU21D;9804;52.350;6.684;2022-09-09T10:19:34;22.86;-6.00
19340;HTU21D;9804;52.350;6.684;2022-09-09T10:22:25;22.81;-6.00
19340;HTU21D;9804;52.350;6.684;2022-09-09T10:25:26;22.58;-6.00
19340;HTU21D;9804;52.350;6.684;2022-09-09T10:33:10;23.15;-6.00
19340;HTU21D;9804;52.350;6.684;2022-09-09T10:35:44;23.40;-6.00
19340;HTU21D;9804;52.350;6.684;2022-09-09T10:41:05;23.32;-6.00
19340;HTU21D;9804;52.350;6.684;2022-09-09T10:57:25;23.53;-6.00
19340;HTU21D;9804;52.350;6.684;2022-09-09T10:59:56;23.97;-6.00
19340;HTU21D;9804;52.350;6.684;2022-09-09T11:02:27;24.83;-6.00
19340;HTU21D;9804;52.350;6.684;2022-09-09T11:04:57;24.27;-6.00
19340;HTU21D;9804;52.350;6.684;2022-09-09T11:07:47;24.48;-6.00
19340;HTU21D;9804;52.350;6.684;2022-09-09T11:12:59;24.17;-6.00
19340;HTU21D;9804;52.350;6.684;2022-09-09T11:15:31;24.18;-6.00
19340;HTU21D;9804;52.350;6.684;2022-09-09T11:18:01;23.72;-6.00
19340;HTU21D;9804;52.350;6.684;2022-09-09T11:20:29;24.48;-6.00
19340;HTU21D;9804;52.350;6.684;2022-09-09T11:23:14;24.54;-6.00
19340;HTU21D;9804;52.350;6.684;2022-09-09T11:25:44;24.78;-6.00
19340;HTU21D;9804;52.350;6.684;2022-09-09T11:31:13;24.56;-6.00
19340;HTU21D;9804;52.350;6.684;2022-09-09T11:36:55;24.01;-6.00
19340;HTU21D;9804;52.350;6.684;2022-09-09T11:39:37;24.63;-6.00
19340;HTU21D;9804;52.350;6.684;2022-09-09T11:42:16;24.57;-6.00
19340;HTU21D;9804;52.350;6.684;2022-09-09T11:44:42;24.84;-6.00
19340;HTU21D;9804;52.350;6.684;2022-09-09T11:47:23;24.43;-6.00
19340;HTU21D;9804;52.350;6.684;2022-09-09T11:49:51;24.11;-6.00
19340;HTU21D;9804;52.350;6.684;2022-09-09T11:52:36;24.71;-6.00
19340;HTU21D;9804;52.350;6.684;2022-09-09T11:55:30;25.18;-6.00
19340;HTU21D;9804;52.350;6.684;2022-09-09T11:58:04;25.00;-6.00
19340;HTU21D;9804;52.350;6.684;2022-09-09T12:00:43;24.14;-6.00
19340;HTU21D;9804;52.350;6.684;2022-09-09T12:03:34;24.14;-6.00
19340;HTU21D;9804;52.350;6.684;2022-09-09T12:06:25;23.99;-6.00
19340;HTU21D;9804;52.350;6.684;2022-09-09T12:08:55;24.21;-6.00
19340;HTU21D;9804;52.350;6.684;2022-09-09T12:11:27;23.79;-6.00
19340;HTU21D;9804;52.350;6.684;2022-09-09T12:13:58;23.17;-6.00
19340;HTU21D;9804;52.350;6.684;2022-09-09T12:16:34;23.30;-6.00
19340;HTU21D;9804;52.350;6.684;2022-09-09T12:21:49;23.57;-6.00
19340;HTU21D;9804;52.350;6.684;2022-09-09T12:24:43;23.49;-6.00
19340;HTU21D;9804;52.350;6.684;2022-09-09T12:27:54;23.77;-6.00
19340;HTU21D;9804;52.350;6.684;2022-09-09T12:30:12;24.41;-6.00
19340;HTU21D;9804;52.350;6.684;2022-09-09T12:32:39;24.82;-6.00
19340;HTU21D;9804;52.350;6.684;2022-09-09T12:35:23;24.61;-6.00
19340;HTU21D;9804;52.350;6.684;2022-09-09T12:38:00;24.74;-6.00
19340;HTU21D;9804;52.350;6.684;2022-09-09T12:40:31;24.60;-6.00
19340;HTU21D;9804;52.350;6.684;2022-09-09T12:43:19;24.65;-6.00
19340;HTU21D;9804;52.350;6.684;2022-09-09T12:45:46;24.53;-6.00
19340;HTU21D;9804;52.350;6.684;2022-09-09T12:48:12;24.23;-6.00
19340;HTU21D;9804;52.350;6.684;2022-09-09T12:50:46;24.50;-6.00
19340;HTU21D;9804;52.350;6.684;2022-09-09T12:53:22;24.95;-6.00
19340;HTU21D;9804;52.350;6.684;2022-09-09T12:56:09;25.00;-6.00
19340;HTU21D;9804;52.350;6.684;2022-09-09T12:58:45;24.06;-6.00
19340;HTU21D;9804;52.350;6.684;2022-09-09T13:01:41;23.75;-6.00
19340;HTU21D;9804;52.350;6.684;2022-09-09T13:04:20;23.79;-6.00
19340;HTU21D;9804;52.350;6.684;2022-09-09T13:06:47;23.14;-6.00
19340;HTU21D;9804;52.350;6.684;2022-09-09T13:09:12;22.91;-6.00
19340;HTU21D;9804;52.350;6.684;2022-09-09T13:11:57;22.67;-6.00
19340;HTU21D;9804;52.350;6.684;2022-09-09T13:14:32;22.37;-6.00
19340;HTU21D;9804;52.350;6.684;2022-09-09T13:17:01;21.84;-6.00
19340;HTU21D;9804;52.350;6.684;2022-09-09T13:19:32;21.45;-6.00
19340;HTU21D;9804;52.350;6.684;2022-09-09T13:21:59;21.04;-6.00
19340;HTU21D;9804;52.350;6.684;2022-09-09T13:24:33;20.63;-6.00
19340;HTU21D;9804;52.350;6.684;2022-09-09T13:27:02;20.17;-6.00
19340;HTU21D;9804;52.350;6.684;2022-09-09T13:29:28;20.44;-6.00
19340;HTU21D;9804;52.350;6.684;2022-09-09T13:32:06;20.64;-6.00
19340;HTU21D;9804;52.350;6.684;2022-09-09T13:34:37;20.56;-6.00
19340;HTU21D;9804;52.350;6.684;2022-09-09T13:37:05;20.44;-6.00
19340;HTU21D;9804;52.350;6.684;2022-09-09T13:39:33;21.03;-6.00
19340;HTU21D;9804;52.350;6.684;2022-09-09T13:41:59;21.45;-6.00
19340;HTU21D;9804;52.350;6.684;2022-09-09T13:44:33;22.20;-6.00
19340;HTU21D;9804;52.350;6.684;2022-09-09T13:49:28;22.05;-6.00
19340;HTU21D;9804;52.350;6.684;2022-09-09T13:52:04;22.13;-6.00
19340;HTU21D;9804;52.350;6.684;2022-09-09T13:54:31;22.60;-6.00
19340;HTU21D;9804;52.350;6.684;2022-09-09T13:56:56;22.73;-6.00
19340;HTU21D;9804;52.350;6.684;2022-09-09T13:59:22;22.70;-6.00
19340;HTU21D;9804;52.350;6.684;2022-09-09T14:01:49;23.11;-6.00
19340;HTU21D;9804;52.350;6.684;2022-09-09T14:04:15;23.18;-6.00
19340;HTU21D;9804;52.350;6.684;2022-09-09T14:06:41;23.32;-6.00
19340;HTU21D;9804;52.350;6.684;2022-09-09T14:09:10;23.06;-6.00
19340;HTU21D;9804;52.350;6.684;2022-09-09T14:11:36;23.08;-6.00
19340;HTU21D;9804;52.350;6.684;2022-09-09T14:14:01;22.67;-6.00
19340;HTU21D;9804;52.350;6.684;2022-09-09T14:16:26;23.26;-6.00
19340;HTU21D;9804;52.350;6.684;2022-09-09T14:18:52;22.35;-6.00
19340;HTU21D;9804;52.350;6.684;2022-09-09T14:21:18;22.50;-6.00
19340;HTU21D;9804;52.350;6.684;2022-09-09T14:23:43;22.63;-6.00
19340;HTU21D;9804;52.350;6.684;2022-09-09T14:26:09;22.31;-6.00
19340;HTU21D;9804;52.350;6.684;2022-09-09T14:28:36;22.32;-6.00
19340;HTU21D;9804;52.350;6.684;2022-09-09T14:31:03;22.77;-6.00
19340;HTU21D;9804;52.350;6.684;2022-09-09T14:33:29;22.81;-6.00
19340;HTU21D;9804;52.350;6.684;2022-09-09T14:35:59;22.75;-6.00
19340;HTU21D;9804;52.350;6.684;2022-09-09T14:38:28;22.66;-6.00
19340;HTU21D;9804;52.350;6.684;2022-09-09T14:40:54;22.37;-6.00
19340;HTU21D;9804;52.350;6.684;2022-09-09T14:43:19;22.24;-6.00
19340;HTU21D;9804;52.350;6.684;2022-09-09T14:45:45;22.20;-6.00
19340;HTU21D;9804;52.350;6.684;2022-09-09T14:48:13;22.36;-6.00
19340;HTU21D;9804;52.350;6.684;2022-09-09T14:50:39;22.60;-6.00
19340;HTU21D;9804;52.350;6.684;2022-09-09T14:53:05;22.87;-6.00
19340;HTU21D;9804;52.350;6.684;2022-09-09T14:55:31;22.76;-6.00
19340;HTU21D;9804;52.350;6.684;2022-09-09T14:57:56;22.95;-6.00
19340;HTU21D;9804;52.350;6.684;2022-09-09T15:00:21;22.64;-6.00
19340;HTU21D;9804;52.350;6.684;2022-09-09T15:02:47;22.94;-6.00
19340;HTU21D;9804;52.350;6.684;2022-09-09T15:05:12;22.78;-6.00
19340;HTU21D;9804;52.350;6.684;2022-09-09T15:07:38;22.80;-6.00
19340;HTU21D;9804;52.350;6.684;2022-09-09T15:10:04;22.86;-6.00
19340;HTU21D;9804;52.350;6.684;2022-09-09T15:12:29;22.71;-6.00
19340;HTU21D;9804;52.350;6.684;2022-09-09T15:14:55;22.58;-6.00
19340;HTU21D;9804;52.350;6.684;2022-09-09T15:17:20;22.52;-6.00
19340;HTU21D;9804;52.350;6.684;2022-09-09T15:19:46;22.32;-6.00
19340;HTU21D;9804;52.350;6.684;2022-09-09T15:22:11;22.80;-6.00
19340;HTU21D;9804;52.350;6.684;2022-09-09T15:24:37;22.37;-6.00
19340;HTU21D;9804;52.350;6.684;2022-09-09T15:27:02;22.43;-6.00
19340;HTU21D;9804;52.350;6.684;2022-09-09T15:29:27;22.19;-6.00
19340;HTU21D;9804;52.350;6.684;2022-09-09T15:31:54;22.16;-6.00
19340;HTU21D;9804;52.350;6.684;2022-09-09T15:34:20;22.22;-6.00
19340;HTU21D;9804;52.350;6.684;2022-09-09T15:36:46;22.32;-6.00
19340;HTU21D;9804;52.350;6.684;2022-09-09T15:39:13;21.95;-6.00
19340;HTU21D;9804;52.350;6.684;2022-09-09T15:41:45;22.08;-6.00
19340;HTU21D;9804;52.350;6.684;2022-09-09T15:44:11;22.36;-6.00
19340;HTU21D;9804;52.350;6.684;2022-09-09T15:46:49;22.76;-6.00
19340;HTU21D;9804;52.350;6.684;2022-09-09T15:49:17;22.42;-6.00
19340;HTU21D;9804;52.350;6.684;2022-09-09T15:51:51;22.35;-6.00
19340;HTU21D;9804;52.350;6.684;2022-09-09T15:54:18;22.50;-6.00
19340;HTU21D;9804;52.350;6.684;2022-09-09T15:56:45;22.66;-6.00
19340;HTU21D;9804;52.350;6.684;2022-09-09T15:59:11;22.80;-6.00
19340;HTU21D;9804;52.350;6.684;2022-09-09T16:01:38;22.54;-6.00
19340;HTU21D;9804;52.350;6.684;2022-09-09T16:04:05;23.14;-6.00
19340;HTU21D;9804;52.350;6.684;2022-09-09T16:06:30;23.21;-6.00
19340;HTU21D;9804;52.350;6.684;2022-09-09T16:08:58;23.06;-6.00
19340;HTU21D;9804;52.350;6.684;2022-09-09T16:11:26;23.24;-6.00
19340;HTU21D;9804;52.350;6.684;2022-09-09T16:13:52;22.90;-6.00
19340;HTU21D;9804;52.350;6.684;2022-09-09T16:16:20;22.85;-6.00
19340;HTU21D;9804;52.350;6.684;2022-09-09T16:18:51;22.87;-6.00
19340;HTU21D;9804;52.350;6.684;2022-09-09T16:21:22;22.90;-6.00
19340;HTU21D;9804;52.350;6.684;2022-09-09T16:23:50;23.08;-6.00
19340;HTU21D;9804;52.350;6.684;2022-09-09T16:26:17;22.88;-6.00
19340;HTU21D;9804;52.350;6.684;2022-09-09T16:28:43;22.76;-6.00
19340;HTU21D;9804;52.350;6.684;2022-09-09T16:31:11;22.82;-6.00
19340;HTU21D;9804;52.350;6.684;2022-09-09T16:33:38;22.78;-6.00
19340;HTU21D;9804;52.350;6.684;2022-09-09T16:36:07;22.87;-6.00
19340;HTU21D;9804;52.350;6.684;2022-09-09T16:38:33;22.67;-6.00
19340;HTU21D;9804;52.350;6.684;2022-09-09T16:41:01;22.70;-6.00
19340;HTU21D;9804;52.350;6.684;2022-09-09T16:43:27;22.42;-6.00
19340;HTU21D;9804;52.350;6.684;2022-09-09T16:45:52;22.41;-6.00
19340;HTU21D;9804;52.350;6.684;2022-09-09T16:48:17;22.37;-6.00
19340;HTU21D;9804;52.350;6.684;2022-09-09T16:50:43;22.36;-6.00
19340;HTU21D;9804;52.350;6.684;2022-09-09T16:53:08;21.96;-6.00
19340;HTU21D;9804;52.350;6.684;2022-09-09T16:55:39;22.04;-6.00
19340;HTU21D;9804;52.350;6.684;2022-09-09T16:58:05;21.99;-6.00
19340;HTU21D;9804;52.350;6.684;2022-09-09T17:00:30;22.04;-6.00
19340;HTU21D;9804;52.350;6.684;2022-09-09T17:02:55;22.11;-6.00
19340;HTU21D;9804;52.350;6.684;2022-09-09T17:05:21;21.99;-6.00
19340;HTU21D;9804;52.350;6.684;2022-09-09T17:07:46;22.41;-6.00
19340;HTU21D;9804;52.350;6.684;2022-09-09T17:10:11;22.06;-6.00
19340;HTU21D;9804;52.350;6.684;2022-09-09T17:12:37;22.29;-6.00
19340;HTU21D;9804;52.350;6.684;2022-09-09T17:15:02;22.27;-6.00
19340;HTU21D;9804;52.350;6.684;2022-09-09T17:17:28;22.42;-6.00
19340;HTU21D;9804;52.350;6.684;2022-09-09T17:19:54;22.17;-6.00
19340;HTU21D;9804;52.350;6.684;2022-09-09T17:22:19;22.25;-6.00
19340;HTU21D;9804;52.350;6.684;2022-09-09T17:24:48;22.06;-6.00
19340;HTU21D;9804;52.350;6.684;2022-09-09T17:27:14;21.97;-6.00
19340;HTU21D;9804;52.350;6.684;2022-09-09T17:29:39;21.74;-6.00